createdAt,value
2023-04-11T00:01:29.589Z,10.32
2023-04-11T00:03:57.123Z,9.68
2023-04-11T00:06:26.188Z,8.63
2023-04-11T00:08:53.744Z,9.23
2023-04-11T00:11:21.141Z,9.55
2023-04-11T00:13:48.657Z,10.38
2023-04-11T00:16:16.769Z,10.30
2023-04-11T00:18:44.864Z,8.55
2023-04-11T00:21:12.015Z,9.15
2023-04-11T00:23:38.971Z,9.00
2023-04-11T00:26:06.331Z,9.48
2023-04-11T00:28:33.620Z,9.68
2023-04-11T00:31:02.413Z,9.18
2023-04-11T00:33:29.424Z,9.68
2023-04-11T00:35:56.571Z,9.27
2023-04-11T00:38:23.595Z,9.88
2023-04-11T00:40:50.656Z,8.18
2023-04-11T00:43:18.281Z,10.85
2023-04-11T00:45:45.576Z,9.30
2023-04-11T00:48:12.690Z,9.68
2023-04-11T00:50:42.353Z,8.98
2023-04-11T00:53:12.226Z,9.27
2023-04-11T00:55:39.886Z,9.52
2023-04-11T00:58:08.279Z,9.23
2023-04-11T01:00:35.527Z,11.65
2023-04-11T01:03:02.925Z,10.98
2023-04-11T01:05:32.350Z,8.50
2023-04-11T01:08:00.295Z,9.70
2023-04-11T01:10:30.873Z,10.98
2023-04-11T01:13:01.369Z,10.05
2023-04-11T01:15:28.441Z,10.73
2023-04-11T01:17:57.765Z,9.13
2023-04-11T01:20:26.471Z,8.43
2023-04-11T01:22:54.354Z,10.15
2023-04-11T01:25:22.430Z,8.80
2023-04-11T01:27:49.395Z,9.77
2023-04-11T01:30:16.847Z,9.23
2023-04-11T01:32:43.826Z,9.55
2023-04-11T01:35:14.309Z,11.40
2023-04-11T01:37:41.430Z,11.52
2023-04-11T01:40:09.486Z,9.30
2023-04-11T01:42:38.307Z,10.38
2023-04-11T01:45:07.893Z,9.10
2023-04-11T01:47:34.967Z,8.93
2023-04-11T01:50:02.248Z,9.10
2023-04-11T01:52:29.324Z,10.95
2023-04-11T01:54:56.270Z,11.55
2023-04-11T01:57:23.295Z,11.70
2023-04-11T01:59:50.494Z,8.73
2023-04-11T02:02:17.633Z,10.93
2023-04-11T02:04:44.843Z,10.60
2023-04-11T02:07:14.730Z,11.15
2023-04-11T02:09:41.816Z,9.27
2023-04-11T02:12:08.946Z,10.23
2023-04-11T02:14:44.073Z,10.50
2023-04-11T02:17:13.235Z,9.35
2023-04-11T02:19:45.350Z,10.90
2023-04-11T02:22:13.459Z,10.18
2023-04-11T02:24:41.113Z,8.30
2023-04-11T02:27:09.381Z,10.60
2023-04-11T02:29:36.570Z,9.63
2023-04-11T02:32:03.567Z,14.73
2023-04-11T02:34:30.883Z,9.85
2023-04-11T02:36:58.006Z,11.52
2023-04-11T02:39:25.074Z,10.63
2023-04-11T02:41:52.107Z,10.52
2023-04-11T02:44:19.878Z,9.02
2023-04-11T02:46:47.498Z,10.52
2023-04-11T02:49:14.578Z,10.25
2023-04-11T02:51:42.278Z,11.80
2023-04-11T02:54:09.392Z,9.40
2023-04-11T02:56:39.012Z,11.65
2023-04-11T02:59:07.091Z,10.18
2023-04-11T03:01:34.599Z,11.65
2023-04-11T03:04:01.845Z,9.93
2023-04-11T03:06:42.202Z,12.05
2023-04-11T03:09:09.268Z,12.98
2023-04-11T03:11:36.271Z,10.07
2023-04-11T03:14:04.576Z,13.93
2023-04-11T03:16:32.535Z,13.20
2023-04-11T03:18:59.862Z,10.15
2023-04-11T03:21:27.396Z,10.18
2023-04-11T03:23:54.615Z,11.02
2023-04-11T03:26:27.212Z,10.85
2023-04-11T03:28:58.676Z,9.63
2023-04-11T03:31:30.232Z,10.98
2023-04-11T03:33:59.125Z,11.85
2023-04-11T03:36:27.147Z,10.32
2023-04-11T03:38:54.733Z,13.25
2023-04-11T03:41:22.221Z,9.10
2023-04-11T03:43:50.614Z,9.68
2023-04-11T03:46:21.485Z,9.80
2023-04-11T03:48:48.590Z,8.93
2023-04-11T03:51:17.009Z,9.85
2023-04-11T03:53:53.796Z,11.60
2023-04-11T03:56:25.496Z,9.25
2023-04-11T03:58:53.537Z,9.50
2023-04-11T04:01:23.462Z,12.40
2023-04-11T04:03:52.970Z,9.77
2023-04-11T04:06:20.074Z,11.60
2023-04-11T04:08:47.928Z,12.35
2023-04-11T04:11:15.775Z,9.50
2023-04-11T04:13:43.836Z,10.05
2023-04-11T04:16:17.570Z,7.72
2023-04-11T04:18:50.389Z,10.98
2023-04-11T04:21:18.132Z,10.32
2023-04-11T04:23:49.965Z,8.68
2023-04-11T04:26:49.901Z,9.57
2023-04-11T04:29:48.010Z,10.60
2023-04-11T04:32:24.943Z,9.82
2023-04-11T04:34:58.573Z,15.18
2023-04-11T04:37:28.705Z,10.02
2023-04-11T04:40:15.927Z,12.70
2023-04-11T04:42:58.271Z,12.18
2023-04-11T04:45:35.735Z,12.20
2023-04-11T04:48:02.760Z,11.82
2023-04-11T04:50:29.703Z,11.38
2023-04-11T04:52:56.699Z,18.40
2023-04-11T04:55:23.597Z,11.20
2023-04-11T04:57:51.605Z,12.85
2023-04-11T05:00:21.762Z,12.75
2023-04-11T05:02:54.857Z,13.63
2023-04-11T05:05:23.141Z,12.63
2023-04-11T05:07:50.315Z,13.77
2023-04-11T05:10:17.426Z,11.63
2023-04-11T05:12:45.342Z,14.18
2023-04-11T05:15:14.986Z,13.73
2023-04-11T05:17:42.878Z,13.82
2023-04-11T05:20:11.459Z,13.10
2023-04-11T05:22:39.284Z,12.85
2023-04-11T05:25:08.950Z,13.88
2023-04-11T05:27:38.212Z,13.95
2023-04-11T05:30:06.892Z,12.32
2023-04-11T05:32:37.545Z,14.90
2023-04-11T05:35:05.952Z,13.45
2023-04-11T05:37:46.234Z,13.75
2023-04-11T05:40:13.280Z,16.30
2023-04-11T05:42:40.256Z,14.18
2023-04-11T05:45:08.063Z,14.73
2023-04-11T05:47:35.418Z,14.75
2023-04-11T05:50:02.556Z,13.20
2023-04-11T05:52:29.455Z,13.18
2023-04-11T05:54:56.404Z,11.57
2023-04-11T05:57:23.566Z,14.10
2023-04-11T05:59:52.759Z,15.45
2023-04-11T06:02:19.712Z,12.85
2023-04-11T06:04:46.708Z,13.80
2023-04-11T06:07:13.965Z,15.02
2023-04-11T06:09:42.601Z,13.32
2023-04-11T06:12:10.121Z,13.88
2023-04-11T06:14:39.564Z,14.15
2023-04-11T06:17:07.525Z,14.43
2023-04-11T06:19:34.501Z,13.23
2023-04-11T06:22:01.466Z,13.48
2023-04-11T06:24:38.159Z,14.05
2023-04-11T06:27:06.482Z,13.52
2023-04-11T06:29:33.607Z,13.75
2023-04-11T06:32:00.685Z,15.90
2023-04-11T06:34:28.074Z,16.55
2023-04-11T06:36:55.297Z,13.63
2023-04-11T06:39:22.331Z,15.60
2023-04-11T06:41:49.730Z,16.50
2023-04-11T06:44:24.503Z,15.27
2023-04-11T06:46:51.845Z,13.95
2023-04-11T06:49:18.967Z,14.85
2023-04-11T06:51:52.374Z,13.65
2023-04-11T06:54:19.374Z,13.25
2023-04-11T06:56:47.330Z,14.65
2023-04-11T06:59:14.304Z,13.75
2023-04-11T07:01:41.303Z,13.52
2023-04-11T07:04:08.898Z,14.35
2023-04-11T07:06:36.060Z,13.02
2023-04-11T07:09:04.488Z,16.13
2023-04-11T07:11:32.363Z,13.93
2023-04-11T07:14:00.308Z,14.00
2023-04-11T07:16:27.588Z,19.65
2023-04-11T07:18:55.606Z,14.23
2023-04-11T07:21:22.630Z,17.50
2023-04-11T07:23:49.940Z,16.63
2023-04-11T07:26:17.819Z,16.27
2023-04-11T07:28:45.153Z,14.38
2023-04-11T07:31:13.680Z,16.30
2023-04-11T07:33:43.705Z,14.93
2023-04-11T07:36:11.334Z,15.98
2023-04-11T07:38:38.329Z,16.67
2023-04-11T07:41:06.247Z,15.40
2023-04-11T07:43:33.807Z,16.10
2023-04-11T07:46:00.826Z,14.98
2023-04-11T07:48:28.389Z,17.02
2023-04-11T07:53:36.689Z,15.30
2023-04-11T07:56:05.011Z,16.67
2023-04-11T07:58:32.180Z,12.85
2023-04-11T08:00:59.364Z,12.95
2023-04-11T08:03:27.080Z,16.95
2023-04-11T08:05:54.265Z,16.73
2023-04-11T08:08:21.473Z,14.90
2023-04-11T08:10:50.685Z,16.60
2023-04-11T08:13:19.142Z,18.05
2023-04-11T08:15:46.639Z,14.90
2023-04-11T08:18:13.794Z,13.75
2023-04-11T08:20:40.998Z,15.32
2023-04-11T08:23:09.485Z,17.17
2023-04-11T08:25:36.815Z,13.27
2023-04-11T08:28:05.078Z,15.02
2023-04-11T08:30:32.506Z,14.75
2023-04-11T08:32:59.562Z,16.48
2023-04-11T08:35:29.664Z,13.55
2023-04-11T08:37:56.617Z,12.95
2023-04-11T08:40:25.182Z,14.93
2023-04-11T08:43:00.272Z,13.02
2023-04-11T08:45:27.888Z,10.65
2023-04-11T08:47:54.996Z,13.32
2023-04-11T08:50:21.938Z,10.13
2023-04-11T08:52:51.536Z,8.60
2023-04-11T08:55:18.432Z,10.00
2023-04-11T08:57:45.332Z,8.38
2023-04-11T09:00:19.328Z,8.18
2023-04-11T09:03:05.713Z,8.73
2023-04-11T09:05:38.756Z,8.77
2023-04-11T09:08:09.022Z,6.63
2023-04-11T09:10:38.643Z,7.82
2023-04-11T09:13:27.241Z,6.20
2023-04-11T09:16:24.129Z,5.53
2023-04-11T09:18:51.313Z,15.15
2023-04-11T09:21:19.623Z,9.80
2023-04-11T09:23:47.293Z,5.78
2023-04-11T09:26:31.259Z,7.35
2023-04-11T09:28:59.249Z,8.40
2023-04-11T09:31:45.231Z,9.52
2023-04-11T09:34:23.494Z,6.95
2023-04-11T09:36:56.022Z,7.28
2023-04-11T09:39:22.960Z,7.68
2023-04-11T09:41:49.986Z,6.20
2023-04-11T09:44:16.914Z,6.88
2023-04-11T09:46:57.371Z,9.40
2023-04-11T09:49:24.910Z,13.02
2023-04-11T09:51:52.501Z,4.47
2023-04-11T09:54:24.676Z,7.75
2023-04-11T09:56:51.622Z,10.48
2023-04-11T09:59:21.422Z,7.78
2023-04-11T10:01:50.978Z,7.47
2023-04-11T10:04:20.300Z,6.78
2023-04-11T10:07:10.480Z,6.15
2023-04-11T10:09:41.257Z,11.15
2023-04-11T10:12:08.506Z,11.27
2023-04-11T10:14:42.829Z,7.97
2023-04-11T10:17:22.991Z,9.57
2023-04-11T10:19:58.678Z,6.35
2023-04-11T10:22:41.060Z,13.20
2023-04-11T10:25:20.213Z,8.70
2023-04-11T10:28:10.584Z,9.13
2023-04-11T10:30:40.697Z,8.75
2023-04-11T10:33:17.902Z,8.20
2023-04-11T10:36:05.210Z,10.57
2023-04-11T10:38:41.565Z,10.13
2023-04-11T10:41:25.224Z,10.05
2023-04-11T10:44:21.469Z,7.22
2023-04-11T10:46:54.775Z,6.95
2023-04-11T10:49:39.614Z,6.75
2023-04-11T10:52:24.745Z,4.68
2023-04-11T10:54:54.369Z,5.25
2023-04-11T10:57:22.985Z,4.03
2023-04-11T10:59:50.194Z,4.10
2023-04-11T11:02:19.907Z,4.15
2023-04-11T11:04:47.452Z,3.60
2023-04-11T11:07:18.866Z,4.30
2023-04-11T11:09:51.065Z,3.58
2023-04-11T11:12:18.281Z,4.05
2023-04-11T11:14:47.151Z,4.57
2023-04-11T11:17:17.122Z,5.40
2023-04-11T11:19:45.765Z,11.45
2023-04-11T11:22:25.756Z,5.88
2023-04-11T11:24:53.406Z,3.67
2023-04-11T11:27:22.945Z,4.28
2023-04-11T11:29:51.116Z,3.40
2023-04-11T11:32:29.268Z,2.63
2023-04-11T11:34:58.608Z,3.90
2023-04-11T11:37:25.794Z,4.60
2023-04-11T11:39:53.584Z,5.28
2023-04-11T11:42:21.041Z,7.32
2023-04-11T11:44:47.972Z,5.15
2023-04-11T11:47:17.781Z,4.38
2023-04-11T11:49:51.125Z,6.32
2023-04-11T11:52:41.752Z,2.85
2023-04-11T11:55:18.615Z,9.02
2023-04-11T11:57:49.858Z,5.10
2023-04-11T12:00:25.929Z,4.70
2023-04-11T12:02:55.409Z,3.78
2023-04-11T12:05:25.253Z,3.28
2023-04-11T12:07:57.322Z,5.40
2023-04-11T12:10:24.700Z,2.42
2023-04-11T12:12:53.431Z,3.53
2023-04-11T12:15:24.108Z,4.43
2023-04-11T12:17:54.114Z,3.63
2023-04-11T12:20:26.524Z,2.72
2023-04-11T12:22:55.138Z,2.05
2023-04-11T12:25:23.368Z,3.50
2023-04-11T12:27:50.302Z,1.95
2023-04-11T12:30:17.478Z,0.82
2023-04-11T12:32:45.446Z,2.42
2023-04-11T12:35:12.998Z,1.48
2023-04-11T12:37:40.283Z,1.83
2023-04-11T12:40:12.702Z,2.78
2023-04-11T12:45:13.742Z,2.17
2023-04-11T12:47:41.054Z,4.97
2023-04-11T12:50:10.849Z,2.28
2023-04-11T12:52:38.144Z,2.30
2023-04-11T12:55:05.787Z,3.45
2023-04-11T12:57:32.955Z,3.75
2023-04-11T13:00:00.159Z,3.03
2023-04-11T13:02:29.344Z,1.63
2023-04-11T13:04:59.561Z,2.58
2023-04-11T13:07:26.604Z,2.85
2023-04-11T13:09:53.612Z,3.72
2023-04-11T13:12:20.741Z,2.45
2023-04-11T13:14:47.694Z,2.25
2023-04-11T13:17:15.342Z,2.80
2023-04-11T13:19:42.374Z,4.25
2023-04-11T13:22:09.259Z,2.40
2023-04-11T13:24:36.406Z,4.88
2023-04-11T13:27:03.475Z,3.65
2023-04-11T13:29:30.399Z,4.30
2023-04-11T13:31:57.809Z,3.13
2023-04-11T13:34:24.944Z,1.52
2023-04-11T13:36:51.950Z,6.03
2023-04-11T13:39:19.146Z,3.08
2023-04-11T13:41:46.085Z,2.00
2023-04-11T13:44:13.177Z,1.95
2023-04-11T13:46:40.176Z,1.33
2023-04-11T13:49:07.222Z,1.65
2023-04-11T13:51:34.291Z,1.08
2023-04-11T13:54:01.277Z,1.88
2023-04-11T13:56:28.698Z,2.97
2023-04-11T13:58:56.163Z,1.70
2023-04-11T14:01:23.785Z,1.90
2023-04-11T14:03:50.873Z,2.17
2023-04-11T14:06:19.312Z,1.70
2023-04-11T14:08:47.369Z,2.67
2023-04-11T14:11:15.427Z,1.27
2023-04-11T14:13:42.274Z,0.65
2023-04-11T14:16:09.743Z,1.67
2023-04-11T14:18:36.911Z,2.28
2023-04-11T14:21:05.775Z,1.00
2023-04-11T14:23:32.715Z,0.73
2023-04-11T14:25:59.602Z,1.92
2023-04-11T14:28:27.139Z,1.08
2023-04-11T14:30:55.545Z,1.85
2023-04-11T14:33:23.129Z,1.70
2023-04-11T14:35:51.140Z,2.42
2023-04-11T14:38:18.287Z,0.60
2023-04-11T14:40:45.510Z,1.30
2023-04-11T14:43:12.393Z,2.00
2023-04-11T14:45:39.399Z,3.53
2023-04-11T14:48:06.706Z,2.63
2023-04-11T14:50:33.965Z,4.22
2023-04-11T14:53:01.135Z,1.20
2023-04-11T14:55:28.143Z,3.45
2023-04-11T14:57:56.527Z,3.30
2023-04-11T15:00:25.042Z,1.50
2023-04-11T15:02:54.728Z,1.35
2023-04-11T15:05:23.169Z,0.98
2023-04-11T15:07:51.990Z,2.65
2023-04-11T15:10:22.536Z,1.20
2023-04-11T15:12:50.266Z,2.20
2023-04-11T15:15:17.451Z,1.55
2023-04-11T15:17:48.675Z,1.67
2023-04-11T15:20:16.890Z,2.75
2023-04-11T15:22:46.200Z,3.97
2023-04-11T15:25:15.421Z,1.13
2023-04-11T15:27:43.049Z,0.88
2023-04-11T15:30:11.256Z,6.50
2023-04-11T15:32:45.634Z,2.13
2023-04-11T15:35:12.772Z,2.95
2023-04-11T15:37:39.660Z,2.92
2023-04-11T15:40:09.324Z,4.85
2023-04-11T15:42:37.582Z,4.47
2023-04-11T15:45:05.510Z,3.53
2023-04-11T15:47:33.453Z,3.15
2023-04-11T15:50:04.641Z,1.95
2023-04-11T15:52:31.633Z,1.98
2023-04-11T15:54:58.501Z,4.25
2023-04-11T15:57:28.117Z,0.88
2023-04-11T15:59:55.801Z,4.45
2023-04-11T16:02:23.010Z,2.40
2023-04-11T16:04:53.137Z,5.93
2023-04-11T16:07:23.127Z,2.30
2023-04-11T16:09:50.593Z,2.22
2023-04-11T16:12:18.863Z,2.97
2023-04-11T16:14:46.001Z,2.95
2023-04-11T16:17:15.448Z,1.90
2023-04-11T16:19:42.462Z,4.00
2023-04-11T16:22:09.373Z,2.20
2023-04-11T16:24:36.342Z,1.95
2023-04-11T16:27:03.878Z,2.40
2023-04-11T16:29:30.876Z,0.82
2023-04-11T16:31:57.877Z,2.50
2023-04-11T16:34:25.253Z,1.85
2023-04-11T16:36:52.252Z,1.23
2023-04-11T16:39:19.308Z,0.50
2023-04-11T16:41:46.169Z,3.10
2023-04-11T16:44:13.328Z,0.68
2023-04-11T16:46:44.612Z,3.45
2023-04-11T16:49:11.655Z,0.90
2023-04-11T16:51:38.623Z,2.05
2023-04-11T16:55:04.525Z,1.95
2023-04-11T16:57:33.280Z,2.25
2023-04-11T17:00:01.036Z,2.03
2023-04-11T17:02:28.392Z,2.72
2023-04-11T17:04:55.727Z,2.35
2023-04-11T17:07:22.680Z,2.58
2023-04-11T17:09:49.823Z,5.00
2023-04-11T17:12:17.123Z,4.00
2023-04-11T17:14:45.627Z,3.10
2023-04-11T17:17:12.722Z,4.10
2023-04-11T17:19:39.589Z,2.08
2023-04-11T17:22:07.097Z,2.95
2023-04-11T17:24:34.166Z,5.13
2023-04-11T17:27:01.359Z,2.90
2023-04-11T17:29:28.333Z,1.73
2023-04-11T17:31:55.229Z,5.05
2023-04-11T17:34:22.287Z,4.70
2023-04-11T17:36:49.366Z,3.30
2023-04-11T17:39:18.001Z,2.92
2023-04-11T17:41:45.990Z,2.58
2023-04-11T17:44:13.428Z,3.53
2023-04-11T17:46:40.399Z,3.15
2023-04-11T17:49:07.601Z,3.70
2023-04-11T17:51:34.726Z,2.47
2023-04-11T17:54:02.226Z,1.67
2023-04-11T17:56:29.256Z,4.85
2023-04-11T17:58:56.278Z,3.17
2023-04-11T18:01:24.631Z,2.20
2023-04-11T18:03:51.915Z,3.15
2023-04-11T18:06:19.374Z,1.88
2023-04-11T18:08:50.524Z,2.80
2023-04-11T18:11:19.160Z,2.15
2023-04-11T18:13:47.734Z,3.70
2023-04-11T18:16:16.877Z,4.07
2023-04-11T18:18:44.108Z,4.90
2023-04-11T18:21:11.190Z,1.42
2023-04-11T18:23:39.104Z,2.33
2023-04-11T18:26:06.094Z,4.30
2023-04-11T18:28:33.162Z,2.45
2023-04-11T18:31:00.335Z,2.67
2023-04-11T18:33:27.957Z,2.08
2023-04-11T18:35:54.980Z,3.85
2023-04-11T18:38:22.339Z,3.25
2023-04-11T18:40:49.517Z,2.75
2023-04-11T18:43:17.944Z,3.55
2023-04-11T18:45:45.324Z,3.95
2023-04-11T18:48:13.355Z,2.42
2023-04-11T18:50:43.050Z,5.75
2023-04-11T18:53:13.310Z,5.13
2023-04-11T18:55:41.442Z,3.67
2023-04-11T18:58:09.723Z,2.03
2023-04-11T19:00:39.030Z,7.00
2023-04-11T19:03:15.015Z,3.75
2023-04-11T19:05:44.764Z,4.25
2023-04-11T19:08:12.506Z,2.72
2023-04-11T19:10:39.482Z,5.90
2023-04-11T19:13:06.863Z,6.20
2023-04-11T19:15:33.987Z,3.80
2023-04-11T19:18:01.808Z,5.72
2023-04-11T19:20:29.547Z,6.50
2023-04-11T19:22:57.051Z,3.88
2023-04-11T19:25:24.340Z,6.35
2023-04-11T19:27:51.459Z,4.10
2023-04-11T19:30:18.583Z,6.47
2023-04-11T19:32:47.667Z,6.75
2023-04-11T19:35:15.151Z,4.00
2023-04-11T19:37:42.534Z,8.90
2023-04-11T19:40:13.829Z,8.50
2023-04-11T19:42:41.804Z,5.00
2023-04-11T19:45:12.527Z,3.88
2023-04-11T19:47:41.184Z,3.78
2023-04-11T19:50:13.258Z,3.83
2023-04-11T19:52:42.629Z,3.55
2023-04-11T19:55:12.908Z,7.43
2023-04-11T19:57:41.039Z,10.00
2023-04-11T20:00:13.701Z,3.80
2023-04-11T20:02:47.175Z,4.97
2023-04-11T20:05:17.173Z,4.35
2023-04-11T20:07:45.509Z,3.10
2023-04-11T20:10:14.709Z,3.25
2023-04-11T20:12:41.867Z,3.97
2023-04-11T20:15:09.724Z,8.85
2023-04-11T20:17:36.891Z,4.13
2023-04-11T20:20:08.750Z,2.60
2023-04-11T20:22:38.280Z,4.13
2023-04-11T20:25:11.689Z,5.45
2023-04-11T20:27:39.766Z,3.63
2023-04-11T20:30:09.835Z,4.43
2023-04-11T20:32:37.314Z,4.38
2023-04-11T20:35:05.132Z,4.45
2023-04-11T20:37:34.443Z,5.78
2023-04-11T20:40:02.657Z,3.38
2023-04-11T20:42:31.758Z,3.20
2023-04-11T20:45:10.467Z,5.78
2023-04-11T20:47:41.795Z,4.90
2023-04-11T20:50:13.243Z,6.22
2023-04-11T20:52:50.699Z,4.43
2023-04-11T20:55:17.988Z,8.88
2023-04-11T20:57:45.264Z,3.45
2023-04-11T21:00:14.530Z,5.03
2023-04-11T21:02:45.172Z,6.20
2023-04-11T21:05:13.973Z,2.95
2023-04-11T21:07:42.042Z,5.05
2023-04-11T21:10:10.759Z,2.60
2023-04-11T21:12:38.052Z,5.55
2023-04-11T21:15:06.681Z,2.40
2023-04-11T21:17:35.662Z,4.72
2023-04-11T21:20:18.184Z,4.47
2023-04-11T21:22:47.654Z,2.60
2023-04-11T21:25:15.984Z,3.90
2023-04-11T21:27:43.570Z,4.38
2023-04-11T21:30:11.678Z,2.35
2023-04-11T21:32:39.927Z,5.47
2023-04-11T21:35:09.970Z,3.30
2023-04-11T21:37:36.918Z,4.45
2023-04-11T21:40:04.275Z,5.38
2023-04-11T21:42:31.383Z,7.18
2023-04-11T21:44:58.511Z,4.80
2023-04-11T21:47:25.641Z,5.32
2023-04-11T21:49:52.682Z,5.82
2023-04-11T21:52:19.594Z,4.35
2023-04-11T21:54:46.865Z,4.40
2023-04-11T21:57:13.846Z,3.10
2023-04-11T21:59:40.741Z,5.25
2023-04-11T22:02:07.982Z,6.22
2023-04-11T22:04:41.464Z,3.20
2023-04-11T22:07:15.021Z,2.67
2023-04-11T22:09:46.628Z,3.30
2023-04-11T22:12:17.623Z,3.30
2023-04-11T22:14:44.700Z,3.42
2023-04-11T22:17:12.319Z,2.45
2023-04-11T22:19:42.285Z,3.33
2023-04-11T22:22:10.089Z,3.90
2023-04-11T22:24:38.262Z,3.13
2023-04-11T22:27:10.129Z,4.03
2023-04-11T22:29:37.360Z,5.68
2023-04-11T22:32:04.351Z,4.13
2023-04-11T22:34:31.532Z,4.68
2023-04-11T22:36:58.959Z,4.70
2023-04-11T22:39:26.007Z,6.40
2023-04-11T22:41:53.362Z,7.20
2023-04-11T22:44:20.802Z,5.18
2023-04-11T22:47:08.640Z,5.90
2023-04-11T22:49:41.844Z,4.43
2023-04-11T22:52:14.005Z,5.28
2023-04-11T22:54:42.000Z,6.20
2023-04-11T22:57:09.147Z,5.88
2023-04-11T22:59:37.262Z,4.45
2023-04-11T23:02:04.284Z,5.93
2023-04-11T23:04:32.494Z,4.45
2023-04-11T23:06:59.687Z,4.85
2023-04-11T23:09:28.067Z,3.70
2023-04-11T23:11:54.977Z,2.70
2023-04-11T23:14:22.261Z,5.78
2023-04-11T23:16:49.616Z,5.03
2023-04-11T23:19:18.882Z,6.43
2023-04-11T23:21:45.994Z,4.30
2023-04-11T23:24:12.972Z,4.72
2023-04-11T23:26:40.064Z,6.63
2023-04-11T23:29:07.306Z,6.80
2023-04-11T23:31:34.340Z,4.10
2023-04-11T23:34:02.292Z,8.52
2023-04-11T23:36:29.551Z,3.88
2023-04-11T23:38:56.666Z,7.55
2023-04-11T23:41:23.931Z,6.07
2023-04-11T23:43:51.126Z,7.03
2023-04-11T23:46:18.373Z,8.07
2023-04-11T23:48:46.932Z,7.00
2023-04-11T23:51:14.992Z,4.75
2023-04-11T23:53:42.832Z,4.90
2023-04-11T23:56:10.194Z,6.68
2023-04-11T23:58:37.984Z,7.13
